Time;durP1;ratioP1;P1;durP2;ratioP2;P2;SDS_P1;SDS_P2;PMS_P1;PMS_P2;Temp;Humidity;BMP_temperature;BMP_pressure;BME280_temperature;BME280_humidity;BME280_pressure;Samples;Min_cycle;Max_cycle;Signal;HPM_P1;HPM_P2
2022/03/25 00:01:38;;;;;;;6.97;5.75;;;20.40;55.70;;;;;;4930183;28;87207;-70
2022/03/25 00:04:09;;;;;;;6.55;5.07;;;20.40;55.80;;;;;;4927897;28;90835;-69
2022/03/25 00:06:35;;;;;;;7.20;5.65;;;20.40;55.80;;;;;;4929059;28;87901;-69
2022/03/25 00:09:01;;;;;;;6.32;5.03;;;20.30;55.60;;;;;;4927817;28;87379;-71
2022/03/25 00:11:27;;;;;;;7.05;5.60;;;20.30;55.70;;;;;;4929766;28;87385;-68
2022/03/25 00:13:53;;;;;;;7.43;6.10;;;20.30;55.70;;;;;;4841315;28;2577432;-69
2022/03/25 00:16:21;;;;;;;7.97;5.60;;;20.30;55.50;;;;;;4931232;28;88154;-69
2022/03/25 00:18:47;;;;;;;8.15;5.63;;;20.30;55.60;;;;;;4930688;28;88581;-68
2022/03/25 00:21:13;;;;;;;6.30;5.50;;;20.30;55.80;;;;;;4930860;28;88251;-69
2022/03/25 00:23:38;;;;;;;7.88;5.80;;;20.30;55.90;;;;;;4931360;28;88020;-68
2022/03/25 00:26:06;;;;;;;5.55;5.00;;;20.30;56.00;;;;;;4931085;28;87073;-69
2022/03/25 00:28:32;;;;;;;6.38;5.30;;;20.30;56.00;;;;;;4931364;28;87503;-69
2022/03/25 00:30:57;;;;;;;6.50;5.10;;;20.30;56.00;;;;;;4932886;28;88079;-69
2022/03/25 00:33:23;;;;;;;6.85;5.40;;;20.30;56.00;;;;;;4934829;28;88346;-69
2022/03/25 00:35:52;;;;;;;6.45;5.15;;;20.30;55.80;;;;;;4935677;28;89675;-69
2022/03/25 00:38:21;;;;;;;6.43;5.43;;;20.30;55.90;;;;;;4933768;28;87961;-69
2022/03/25 00:40:47;;;;;;;7.07;5.30;;;20.30;55.90;;;;;;4933639;28;87476;-70
2022/03/25 00:43:12;;;;;;;7.05;5.40;;;20.20;55.70;;;;;;4933052;28;88907;-69
2022/03/25 00:45:40;;;;;;;7.43;5.82;;;20.20;55.80;;;;;;4934440;28;88643;-72
2022/03/25 00:48:07;;;;;;;6.15;5.30;;;20.20;55.80;;;;;;4935647;28;86906;-69
2022/03/25 00:50:33;;;;;;;6.78;5.80;;;20.20;55.70;;;;;;4934783;28;87588;-69
2022/03/25 00:52:59;;;;;;;6.53;5.85;;;20.20;55.80;;;;;;4934538;28;88108;-71
2022/03/25 00:55:27;;;;;;;6.30;5.53;;;20.20;55.60;;;;;;4934585;28;86943;-69
2022/03/25 00:57:53;;;;;;;5.88;5.28;;;20.20;55.70;;;;;;4935037;28;88067;-69
2022/03/25 01:00:20;;;;;;;6.25;5.63;;;20.20;55.50;;;;;;4934765;28;87082;-72
2022/03/25 01:02:45;;;;;;;7.15;5.60;;;20.20;55.50;;;;;;4934154;28;88238;-69
2022/03/25 01:05:12;;;;;;;6.38;5.43;;;20.20;55.60;;;;;;4933900;28;87474;-69
2022/03/25 01:07:38;;;;;;;6.85;5.38;;;20.20;56.40;;;;;;4916032;28;89005;-68
2022/03/25 01:10:04;;;;;;;7.70;5.75;;;20.20;55.50;;;;;;4917051;28;89173;-69
2022/03/25 01:12:29;;;;;;;6.85;5.43;;;20.20;55.50;;;;;;4933781;28;90129;-69
2022/03/25 01:14:58;;;;;;;6.25;4.82;;;20.20;55.40;;;;;;4916702;28;89722;-69
2022/03/25 01:17:27;;;;;;;5.82;5.22;;;20.20;55.40;;;;;;4935224;28;87703;-68
2022/03/25 01:19:53;;;;;;;6.90;5.80;;;20.20;55.30;;;;;;4932913;28;90426;-68
2022/03/25 01:22:18;;;;;;;7.03;5.78;;;20.20;55.40;;;;;;4934754;28;87117;-68
2022/03/25 01:24:44;;;;;;;6.70;5.53;;;20.10;55.20;;;;;;4934524;28;87208;-71
2022/03/25 01:27:13;;;;;;;6.13;5.30;;;20.10;55.30;;;;;;4934274;28;87924;-70
2022/03/25 01:29:39;;;;;;;7.80;5.53;;;20.10;55.30;;;;;;4916185;28;88998;-69
2022/03/25 01:32:07;;;;;;;7.35;5.50;;;20.10;55.30;;;;;;4933812;28;88884;-72
2022/03/25 01:34:33;;;;;;;6.90;5.82;;;20.10;55.30;;;;;;4932552;28;90645;-69
2022/03/25 01:36:59;;;;;;;7.05;5.78;;;20.10;55.20;;;;;;4933109;28;87783;-69
2022/03/25 01:39:27;;;;;;;7.13;5.38;;;20.10;55.30;;;;;;4933212;28;87006;-69
2022/03/25 01:41:55;;;;;;;6.30;5.70;;;20.10;55.40;;;;;;4932858;28;88009;-69
2022/03/25 01:44:29;;;;;;;7.30;5.72;;;20.10;55.30;;;;;;4933378;28;87816;-69
2022/03/25 01:46:59;;;;;;;6.70;5.70;;;20.10;55.20;;;;;;4915896;28;87018;-70
2022/03/25 01:49:26;;;;;;;6.28;5.57;;;20.10;55.20;;;;;;4934460;28;86940;-69
2022/03/25 01:52:16;;;;;;;6.97;5.70;;;20.10;55.30;;;;;;4934421;28;89046;-69
2022/03/25 01:54:41;;;;;;;6.43;4.78;;;20.10;55.00;;;;;;4901778;28;91036;-69
2022/03/25 01:57:09;;;;;;;6.93;5.70;;;20.10;55.00;;;;;;4914884;28;87998;-69
2022/03/25 01:59:36;;;;;;;6.93;5.03;;;20.10;55.10;;;;;;4916063;28;89889;-69
2022/03/25 02:02:04;;;;;;;8.15;6.15;;;20.10;54.90;;;;;;4916198;28;90495;-69
2022/03/25 02:04:30;;;;;;;7.07;5.68;;;20.10;55.00;;;;;;4931498;28;89715;-71
2022/03/25 02:06:55;;;;;;;5.97;5.38;;;20.00;55.10;;;;;;4933190;28;87670;-69
2022/03/25 02:09:25;;;;;;;5.50;4.93;;;20.00;54.90;;;;;;4933199;28;87924;-70
2022/03/25 02:11:55;;;;;;;5.65;5.03;;;20.00;55.00;;;;;;4915709;28;91252;-69
2022/03/25 02:14:22;;;;;;;6.15;5.07;;;20.00;55.00;;;;;;4932360;28;88550;-69
2022/03/25 02:16:51;;;;;;;6.78;5.38;;;20.00;55.10;;;;;;4933203;28;87873;-69
2022/03/25 02:19:26;;;;;;;;;;;20.00;55.00;;;;;;4934084;28;88066;-69
2022/03/25 02:21:52;;;;;;;6.00;5.40;;;20.00;54.90;;;;;;4934010;28;90406;-71
2022/03/25 02:24:22;;;;;;;6.43;5.47;;;20.00;55.50;;;;;;4933508;28;88754;-69
2022/03/25 02:26:48;;;;;;;7.60;5.97;;;20.00;54.90;;;;;;4915534;28;87924;-69
2022/03/25 02:29:16;;;;;;;6.22;5.50;;;20.00;54.80;;;;;;4933540;28;87885;-68
2022/03/25 02:31:42;;;;;;;6.28;5.10;;;20.00;54.90;;;;;;4932772;28;89039;-69
2022/03/25 02:34:09;;;;;;;5.75;5.25;;;20.00;54.80;;;;;;4932568;28;87796;-69
2022/03/25 02:36:45;;;;;;;6.82;5.65;;;20.00;54.80;;;;;;4933035;28;88195;-69
2022/03/25 02:39:12;;;;;;;6.32;5.28;;;20.00;54.80;;;;;;4920823;28;90082;-69
2022/03/25 02:41:41;;;;;;;7.13;5.75;;;20.00;54.70;;;;;;4931666;28;88102;-70
2022/03/25 02:44:10;;;;;;;6.10;5.47;;;20.00;54.80;;;;;;4933555;28;87287;-68
2022/03/25 02:46:47;;;;;;;6.90;5.28;;;19.90;54.80;;;;;;4933772;28;88741;-69
2022/03/25 02:49:14;;;;;;;5.90;5.30;;;19.90;55.50;;;;;;4933026;28;87674;-68
2022/03/25 02:51:40;;;;;;;6.72;5.63;;;19.90;54.90;;;;;;4932579;28;88443;-68
2022/03/25 02:54:06;;;;;;;6.55;5.53;;;19.90;54.80;;;;;;4932969;28;87893;-68
2022/03/25 02:56:32;;;;;;;5.90;5.30;;;19.90;54.80;;;;;;4933362;28;87266;-69
2022/03/25 02:59:00;;;;;;;5.75;5.05;;;19.90;54.90;;;;;;4932529;28;86995;-69
2022/03/25 03:01:27;;;;;;;6.10;5.43;;;19.90;54.70;;;;;;4932120;28;90430;-69
2022/03/25 03:03:53;;;;;;;6.00;5.32;;;19.90;54.80;;;;;;4915132;28;89234;-71
2022/03/25 03:06:19;;;;;;;6.10;5.30;;;19.90;54.70;;;;;;4915492;28;88158;-68
2022/03/25 03:08:50;;;;;;;6.88;5.60;;;19.90;54.60;;;;;;4915351;28;89822;-69
2022/03/25 03:11:18;;;;;;;6.25;5.65;;;19.90;54.70;;;;;;4918629;28;91907;-69
2022/03/25 03:13:46;;;;;;;6.78;5.50;;;19.90;54.70;;;;;;4913527;28;90344;-68
2022/03/25 03:16:12;;;;;;;5.45;4.93;;;19.80;54.40;;;;;;4932534;28;87794;-71
2022/03/25 03:18:41;;;;;;;6.55;5.43;;;19.90;54.70;;;;;;4914955;28;89214;-69
2022/03/25 03:21:16;;;;;;;6.80;5.23;;;19.90;54.70;;;;;;4933709;28;88280;-69
2022/03/25 03:23:42;;;;;;;6.65;5.68;;;19.90;54.60;;;;;;4932806;28;87796;-69
2022/03/25 03:26:11;;;;;;;6.45;5.40;;;19.90;54.60;;;;;;4931395;28;87871;-71
2022/03/25 03:28:37;;;;;;;7.05;5.15;;;19.90;54.60;;;;;;4933016;28;86741;-70
2022/03/25 03:31:03;;;;;;;6.18;5.50;;;19.80;54.60;;;;;;4913155;28;88829;-69
2022/03/25 03:33:29;;;;;;;6.32;5.45;;;19.80;54.60;;;;;;4932386;28;88852;-70
2022/03/25 03:35:54;;;;;;;6.13;5.45;;;19.80;54.70;;;;;;4931361;28;88290;-69
2022/03/25 03:38:20;;;;;;;6.18;5.57;;;19.80;54.60;;;;;;4930922;28;90336;-71
2022/03/25 03:40:46;;;;;;;6.35;5.40;;;19.80;54.40;;;;;;4932236;28;88104;-69
2022/03/25 03:43:11;;;;;;;6.55;5.78;;;19.80;54.40;;;;;;4932562;28;89113;-69
2022/03/25 03:45:39;;;;;;;6.20;5.00;;;19.80;54.50;;;;;;4932936;28;87745;-69
2022/03/25 03:48:05;;;;;;;6.55;5.88;;;19.80;54.60;;;;;;4932812;28;87965;-70
2022/03/25 03:50:31;;;;;;;7.85;5.88;;;19.80;54.30;;;;;;4932245;28;88236;-69
2022/03/25 03:52:56;;;;;;;5.45;4.88;;;19.80;54.40;;;;;;4914719;28;90306;-70
2022/03/25 03:55:27;;;;;;;6.13;5.43;;;19.80;54.40;;;;;;4931945;28;87960;-69
2022/03/25 03:57:52;;;;;;;6.55;5.35;;;19.80;54.20;;;;;;4931366;28;87833;-68
2022/03/25 04:00:32;;;;;;;7.28;6.20;;;19.80;54.20;;;;;;4929500;28;91632;-69
2022/03/25 04:02:58;;;;;;;7.57;5.15;;;19.80;54.30;;;;;;4913837;28;90112;-69
2022/03/25 04:05:26;;;;;;;5.88;5.28;;;19.80;54.10;;;;;;4933461;28;87443;-69
2022/03/25 04:07:52;;;;;;;6.35;5.68;;;19.80;54.40;;;;;;4932755;28;88130;-70
2022/03/25 04:10:18;;;;;;;6.75;5.30;;;19.80;54.20;;;;;;4931796;28;87578;-69
2022/03/25 04:12:44;;;;;;;5.43;4.93;;;19.70;54.10;;;;;;4932039;28;87897;-70
2022/03/25 04:15:12;;;;;;;6.38;5.43;;;19.70;54.10;;;;;;4930930;28;87653;-69
2022/03/25 04:17:39;;;;;;;6.55;5.72;;;19.70;54.20;;;;;;4933129;28;86710;-69
2022/03/25 04:20:07;;;;;;;5.93;5.38;;;19.70;54.20;;;;;;4931070;28;90282;-70
2022/03/25 04:22:33;;;;;;;5.72;5.00;;;19.70;54.10;;;;;;4930848;28;91442;-70
2022/03/25 04:25:05;;;;;;;5.32;4.80;;;19.70;54.10;;;;;;4931450;28;88644;-71
2022/03/25 04:27:31;;;;;;;6.38;5.43;;;19.70;54.00;;;;;;4931874;28;87513;-69
2022/03/25 04:29:59;;;;;;;5.88;5.07;;;19.70;54.00;;;;;;4913565;28;90611;-69
2022/03/25 04:32:28;;;;;;;5.50;5.00;;;19.70;54.00;;;;;;4932169;28;87635;-69
2022/03/25 04:34:54;;;;;;;5.55;4.93;;;19.70;54.00;;;;;;4933005;28;86980;-69
2022/03/25 04:37:20;;;;;;;6.50;5.63;;;19.70;54.00;;;;;;4914878;28;88868;-69
2022/03/25 04:39:45;;;;;;;5.57;5.07;;;19.70;54.10;;;;;;4931942;28;89010;-69
2022/03/25 04:42:11;;;;;;;5.82;5.22;;;19.70;53.90;;;;;;4932626;28;89252;-68
2022/03/25 04:44:37;;;;;;;5.95;5.25;;;19.70;54.10;;;;;;4933070;28;87535;-69
2022/03/25 04:47:03;;;;;;;6.55;5.35;;;19.60;54.10;;;;;;4914577;28;90363;-71
2022/03/25 04:49:29;;;;;;;5.85;5.25;;;19.60;54.10;;;;;;4931945;28;89784;-69
2022/03/25 04:51:54;;;;;;;6.15;5.55;;;19.70;54.00;;;;;;4914307;28;91675;-69
2022/03/25 04:54:20;;;;;;;6.15;5.03;;;19.60;53.90;;;;;;4932556;28;87644;-69
2022/03/25 04:56:46;;;;;;;6.60;5.57;;;19.60;54.00;;;;;;4932083;28;87560;-68
2022/03/25 04:59:12;;;;;;;5.97;5.38;;;19.60;53.90;;;;;;4929894;28;91003;-71
2022/03/25 05:01:37;;;;;;;6.03;5.43;;;19.60;53.90;;;;;;4930789;28;87198;-69
2022/03/25 05:04:05;;;;;;;5.45;4.90;;;19.60;53.90;;;;;;4931540;28;88121;-71
2022/03/25 05:06:34;;;;;;;7.00;5.32;;;19.60;53.90;;;;;;4932308;28;87193;-69
2022/03/25 05:09:01;;;;;;;5.85;5.32;;;19.60;53.90;;;;;;4913968;28;92133;-69
2022/03/25 05:11:27;;;;;;;7.25;5.60;;;19.60;53.70;;;;;;4932352;28;88822;-70
2022/03/25 05:13:53;;;;;;;6.03;5.10;;;19.60;53.80;;;;;;4930625;28;88165;-68
2022/03/25 05:16:18;;;;;;;6.15;5.55;;;19.60;53.70;;;;;;4934516;28;87407;-69
2022/03/25 05:18:44;;;;;;;6.10;5.50;;;19.60;53.70;;;;;;4917032;28;88622;-68
2022/03/25 05:21:13;;;;;;;6.53;5.82;;;19.60;53.70;;;;;;4935315;28;87945;-68
2022/03/25 05:23:38;;;;;;;5.47;4.97;;;19.60;53.70;;;;;;4934583;28;87831;-68
2022/03/25 05:26:12;;;;;;;5.10;4.60;;;19.60;53.70;;;;;;4934034;28;87158;-68
2022/03/25 05:28:38;;;;;;;5.80;5.20;;;19.60;53.70;;;;;;4916697;28;91392;-69
2022/03/25 05:31:03;;;;;;;7.63;5.70;;;19.60;53.80;;;;;;4934300;28;87955;-69
2022/03/25 05:33:32;;;;;;;6.10;5.40;;;19.50;53.60;;;;;;4933970;28;88064;-69
2022/03/25 05:35:57;;;;;;;7.10;5.45;;;19.60;53.60;;;;;;4917451;28;88928;-69
2022/03/25 05:38:23;;;;;;;5.78;5.20;;;19.50;53.60;;;;;;4932296;28;93082;-68
2022/03/25 05:40:49;;;;;;;6.43;5.43;;;19.50;53.70;;;;;;4934429;28;89161;-69
2022/03/25 05:43:15;;;;;;;6.03;5.25;;;19.50;53.50;;;;;;4916276;28;87603;-69
2022/03/25 05:45:40;;;;;;;5.78;5.18;;;19.50;53.60;;;;;;4932947;28;87351;-68
2022/03/25 05:48:06;;;;;;;6.57;5.75;;;19.50;53.40;;;;;;4933262;28;88092;-68
2022/03/25 05:50:33;;;;;;;5.90;5.30;;;19.50;53.60;;;;;;4933272;28;87222;-68
2022/03/25 05:53:01;;;;;;;5.68;5.07;;;19.50;53.60;;;;;;4933347;28;88110;-68
2022/03/25 05:55:26;;;;;;;5.95;5.22;;;19.50;53.50;;;;;;4933186;28;86833;-69
2022/03/25 05:57:52;;;;;;;5.60;5.00;;;19.50;53.40;;;;;;4923877;28;91288;-68
2022/03/25 06:00:20;;;;;;;6.05;4.50;;;19.50;53.40;;;;;;4923008;23;91357;-82
2022/03/25 06:02:51;;;;;;;6.50;5.43;;;19.50;53.50;;;;;;4911109;28;88398;-85
2022/03/25 06:05:18;;;;;;;5.85;4.70;;;19.50;53.40;;;;;;4910437;28;89673;-83
2022/03/25 06:07:45;;;;;;;5.93;5.13;;;19.50;53.50;;;;;;4910382;28;90298;-84
2022/03/25 06:10:13;;;;;;;6.93;5.18;;;19.50;54.00;;;;;;4909959;28;89872;-85
2022/03/25 06:12:39;;;;;;;5.50;5.00;;;19.50;53.50;;;;;;4896894;28;88008;-86
2022/03/25 06:15:06;;;;;;;10.65;6.53;;;19.50;52.70;;;;;;4898139;28;87390;-86
2022/03/25 06:17:32;;;;;;;5.97;5.35;;;19.50;50.30;;;;;;4897312;28;87552;-85
2022/03/25 06:19:58;;;;;;;6.43;5.28;;;19.50;53.10;;;;;;4896088;28;87653;-87
2022/03/25 06:22:24;;;;;;;6.20;5.60;;;19.50;52.80;;;;;;4895692;28;86927;-88
2022/03/25 06:24:52;;;;;;;7.38;6.03;;;19.50;52.90;;;;;;4894824;28;89442;-85
2022/03/25 06:27:17;;;;;;;7.80;6.90;;;19.50;53.00;;;;;;4907887;28;92069;-85
2022/03/25 06:29:43;;;;;;;8.35;6.75;;;19.50;53.30;;;;;;4909528;28;91052;-84
2022/03/25 06:32:08;;;;;;;7.75;6.95;;;19.60;53.30;;;;;;4895210;28;87870;-83
2022/03/25 06:34:34;;;;;;;7.25;6.55;;;19.60;53.50;;;;;;4893821;28;88498;-83
2022/03/25 06:37:01;;;;;;;6.93;6.22;;;19.60;53.70;;;;;;4894174;28;88094;-85
2022/03/25 06:39:26;;;;;;;6.88;6.18;;;19.60;53.80;;;;;;4892312;28;90527;-85
2022/03/25 06:41:52;;;;;;;7.63;6.15;;;19.60;53.80;;;;;;4892421;28;88225;-84
2022/03/25 06:44:25;;;;;;;8.77;6.20;;;19.60;53.40;;;;;;4894597;28;87109;-85
2022/03/25 06:46:51;;;;;;;6.95;6.25;;;19.70;53.60;;;;;;4894929;28;87900;-84
2022/03/25 06:49:17;;;;;;;9.80;6.60;;;19.70;53.80;;;;;;4892427;28;90312;-83
2022/03/25 06:51:43;;;;;;;7.32;6.47;;;19.70;53.50;;;;;;4891565;28;88494;-84
2022/03/25 06:54:09;;;;;;;8.57;6.40;;;19.70;53.80;;;;;;4893887;28;86894;-83
2022/03/25 06:56:35;;;;;;;7.35;5.95;;;19.70;53.90;;;;;;4893590;28;89715;-85
2022/03/25 06:59:02;;;;;;;6.05;5.45;;;19.70;53.80;;;;;;4892899;28;88820;-84
2022/03/25 07:01:28;;;;;;;7.65;5.82;;;19.70;53.90;;;;;;4908084;28;89665;-87
2022/03/25 07:03:54;;;;;;;6.78;6.18;;;19.70;53.90;;;;;;4894350;28;87090;-84
2022/03/25 07:06:24;;;;;;;6.50;5.70;;;19.70;53.80;;;;;;4893967;28;89789;-84
2022/03/25 07:08:56;;;;;;;9.00;6.32;;;19.70;53.80;;;;;;4895055;28;87762;-85
2022/03/25 07:11:23;;;;;;;7.70;5.90;;;19.70;53.90;;;;;;4892425;28;88158;-85
2022/03/25 07:13:50;;;;;;;7.10;6.15;;;19.70;53.90;;;;;;4893626;28;87904;-86
2022/03/25 07:16:17;;;;;;;8.18;6.20;;;19.70;53.90;;;;;;4893042;28;88908;-84
2022/03/25 07:18:43;;;;;;;6.82;5.72;;;19.80;53.90;;;;;;4893468;28;88682;-85
2022/03/25 07:21:16;;;;;;;6.75;5.88;;;19.70;53.80;;;;;;4894306;28;88091;-87
2022/03/25 07:23:43;;;;;;;7.72;5.70;;;19.80;53.90;;;;;;4893757;28;87654;-87
2022/03/25 07:26:09;;;;;;;9.60;6.28;;;19.80;54.00;;;;;;4893732;28;90469;-84
2022/03/25 07:28:34;;;;;;;7.03;5.57;;;19.70;54.00;;;;;;4894376;28;87515;-84
2022/03/25 07:31:00;;;;;;;6.15;5.30;;;19.80;53.90;;;;;;4894881;28;87471;-85
2022/03/25 07:33:26;;;;;;;6.65;5.95;;;19.80;54.10;;;;;;4905549;28;89673;-84
2022/03/25 07:35:51;;;;;;;7.53;6.35;;;19.80;54.80;;;;;;4907412;28;90392;-85
2022/03/25 07:38:17;;;;;;;9.35;6.05;;;19.80;54.10;;;;;;4896627;28;87497;-87
2022/03/25 07:40:43;;;;;;;8.32;5.90;;;19.80;54.00;;;;;;4892969;28;88571;-83
2022/03/25 07:43:08;;;;;;;6.50;5.60;;;19.80;53.90;;;;;;4892988;28;87925;-85
2022/03/25 07:45:34;;;;;;;7.13;5.85;;;19.80;54.00;;;;;;4890161;28;90565;-84
2022/03/25 07:48:00;;;;;;;7.07;5.90;;;19.90;54.10;;;;;;4891648;28;87749;-84
2022/03/25 07:50:25;;;;;;;17.85;7.65;;;19.80;54.20;;;;;;4908362;28;88318;-85
2022/03/25 07:52:52;;;;;;;10.35;5.82;;;19.90;54.00;;;;;;4907047;28;89224;-85
2022/03/25 07:55:19;;;;;;;12.57;6.93;;;19.90;54.30;;;;;;4892578;28;88126;-84
2022/03/25 07:57:46;;;;;;;14.35;6.97;;;19.90;54.40;;;;;;4895496;28;88045;-85
2022/03/25 08:00:12;;;;;;;14.65;7.15;;;19.90;54.60;;;;;;4909239;28;87624;-86
2022/03/25 08:02:46;;;;;;;13.63;7.20;;;19.90;54.80;;;;;;4939539;23;88375;31
2022/03/25 08:05:13;;;;;;;17.88;7.43;;;19.90;55.00;;;;;;4887652;28;92399;-82
2022/03/25 08:07:48;;;;;;;14.88;7.40;;;19.90;55.10;;;;;;4892096;28;87863;-82
2022/03/25 08:10:18;;;;;;;16.77;8.32;;;19.90;55.10;;;;;;4893652;28;87506;-83
2022/03/25 08:12:44;;;;;;;19.63;7.82;;;19.90;55.20;;;;;;4892737;28;87177;-83
2022/03/25 08:15:11;;;;;;;16.95;7.93;;;19.90;55.30;;;;;;4891080;28;89375;-82
2022/03/25 08:17:48;;;;;;;14.20;7.85;;;19.90;55.40;;;;;;4893853;28;88008;-81
2022/03/25 08:20:18;;;;;;;17.08;8.40;;;19.90;55.50;;;;;;4890425;28;87326;-83
2022/03/25 08:22:44;;;;;;;17.40;8.40;;;19.90;55.10;;;;;;4891172;28;89297;-83
2022/03/25 08:28:00;;;;;;;24.58;8.52;;;19.90;55.30;;;;;;4892539;28;87276;-84
2022/03/25 08:30:26;;;;;;;21.35;8.93;;;19.90;55.30;;;;;;4892918;28;88661;-83
2022/03/25 08:32:52;;;;;;;23.90;9.85;;;19.90;55.40;;;;;;4893965;28;88617;-85
2022/03/25 08:35:18;;;;;;;25.23;9.38;;;19.90;55.50;;;;;;4877968;28;89481;-84
2022/03/25 08:37:43;;;;;;;18.25;8.60;;;19.90;55.50;;;;;;4844604;28;87853;-84
2022/03/25 08:40:09;;;;;;;23.10;9.50;;;19.90;55.60;;;;;;4902588;28;87653;-83
2022/03/25 08:42:35;;;;;;;18.27;8.68;;;19.90;55.70;;;;;;4897539;28;88365;-82
2022/03/25 08:45:01;;;;;;;19.55;9.18;;;19.90;55.70;;;;;;4901475;28;87838;-82
2022/03/25 08:47:27;;;;;;;21.40;9.35;;;19.90;55.80;;;;;;4885819;28;90110;-82
2022/03/25 08:49:53;;;;;;;19.15;9.23;;;19.90;55.70;;;;;;4905480;28;87301;-84
2022/03/25 08:52:21;;;;;;;23.33;10.25;;;19.90;55.50;;;;;;4905418;28;88266;-84
2022/03/25 08:54:47;;;;;;;18.35;9.25;;;19.90;55.80;;;;;;4908213;28;89841;-84
2022/03/25 08:57:13;;;;;;;22.80;9.23;;;19.90;55.80;;;;;;4909491;28;88443;-83
2022/03/25 08:59:39;;;;;;;19.80;9.32;;;19.90;55.80;;;;;;4910846;28;88061;-92
2022/03/25 09:02:04;;;;;;;18.80;9.27;;;19.90;55.80;;;;;;4906442;28;87899;-83
2022/03/25 09:04:33;;;;;;;16.52;8.80;;;20.00;55.90;;;;;;4921523;28;87760;-88
2022/03/25 09:06:59;;;;;;;18.02;9.57;;;20.00;55.90;;;;;;4924661;28;87779;-87
2022/03/25 09:09:25;;;;;;;20.08;10.35;;;20.00;56.00;;;;;;4923131;28;87989;-85
2022/03/25 09:11:51;;;;;;;20.40;10.45;;;20.00;55.70;;;;;;4927711;28;86826;-86
2022/03/25 09:14:17;;;;;;;21.17;10.93;;;20.00;55.50;;;;;;4924775;28;88871;-85
2022/03/25 09:16:44;;;;;;;25.35;12.55;;;20.00;55.60;;;;;;4925169;28;88364;-88
2022/03/25 09:19:09;;;;;;;23.85;14.48;;;20.00;55.60;;;;;;4917211;28;88658;-87
2022/03/25 09:21:35;;;;;;;27.20;12.77;;;19.90;55.00;;;;;;4926510;28;87532;-84
2022/03/25 09:24:01;;;;;;;24.35;12.88;;;19.90;55.20;;;;;;4927894;28;88087;-88
2022/03/25 09:26:26;;;;;;;25.58;13.38;;;20.00;54.90;;;;;;4922046;28;87665;-84
2022/03/25 09:28:52;;;;;;;29.65;13.75;;;20.00;55.40;;;;;;4920162;28;87006;-81
2022/03/25 09:31:18;;;;;;;24.70;13.20;;;20.00;55.30;;;;;;4923122;28;87405;-83
2022/03/25 09:33:44;;;;;;;25.48;13.07;;;20.00;55.30;;;;;;4923385;28;90345;-84
2022/03/25 09:36:10;;;;;;;28.27;13.07;;;20.00;55.40;;;;;;4927250;28;88433;-87
2022/03/25 09:38:36;;;;;;;25.92;13.38;;;20.00;55.40;;;;;;4927686;28;87513;-84
2022/03/25 09:41:04;;;;;;;25.90;13.70;;;20.00;55.50;;;;;;4926176;28;87866;-90
2022/03/25 09:43:29;;;;;;;35.45;14.90;;;20.00;55.60;;;;;;4922495;28;88882;-85
2022/03/25 09:45:55;;;;;;;25.42;13.88;;;20.00;55.70;;;;;;4922421;28;87741;-91
2022/03/25 09:48:21;;;;;;;27.23;14.40;;;20.00;55.60;;;;;;4923642;28;86864;-83
2022/03/25 09:50:46;;;;;;;27.23;14.30;;;20.00;55.80;;;;;;4925430;28;87322;-84
2022/03/25 09:53:12;;;;;;;23.75;13.43;;;20.00;56.10;;;;;;4921871;28;87948;-82
2022/03/25 09:55:40;;;;;;;26.08;14.52;;;20.00;56.50;;;;;;4922449;28;87416;-82
2022/03/25 09:58:07;;;;;;;20.67;13.43;;;20.00;56.20;;;;;;4905340;28;87974;-83
2022/03/25 10:00:32;;;;;;;24.85;14.27;;;20.00;55.90;;;;;;4928399;28;87046;-83
2022/03/25 10:02:58;;;;;;;29.13;15.93;;;20.00;55.90;;;;;;4920064;28;89707;-83
2022/03/25 10:05:30;;;;;;;33.85;19.67;;;20.00;55.00;;;;;;4922054;28;90189;-84
2022/03/25 10:07:56;;;;;;;33.63;20.42;;;20.00;54.50;;;;;;4924182;28;88599;-84
2022/03/25 10:10:24;;;;;;;33.88;19.70;;;20.00;54.20;;;;;;4923410;28;87206;-83
2022/03/25 10:12:59;;;;;;;31.97;19.57;;;19.90;54.00;;;;;;4920233;28;89329;-82
2022/03/25 10:15:29;;;;;;;36.70;19.48;;;19.90;54.00;;;;;;4922139;28;88161;-84
2022/03/25 10:18:03;;;;;;;34.83;20.38;;;19.90;53.90;;;;;;4923176;28;87834;-82
2022/03/25 10:20:31;;;;;;;29.90;21.52;;;19.90;53.60;;;;;;4921738;28;87889;-82
2022/03/25 10:23:00;;;;;;;35.45;21.35;;;19.90;52.90;;;;;;4929552;28;87275;-83
2022/03/25 10:25:33;;;;;;;38.03;21.63;;;19.90;53.00;;;;;;4925694;28;87636;-82
2022/03/25 10:27:59;;;;;;;33.95;21.25;;;19.90;53.00;;;;;;4905824;28;87617;-83
2022/03/25 10:30:42;;;;;;;33.42;19.58;;;19.90;53.00;;;;;;4923819;28;89104;-82
2022/03/25 10:33:13;;;;;;;35.58;20.30;;;19.90;53.00;;;;;;4923466;28;88716;-82
2022/03/25 10:36:04;;;;;;;32.33;20.30;;;19.90;53.20;;;;;;4922967;28;88481;-82
2022/03/25 10:39:11;;;;;;;32.17;20.77;;;19.90;53.20;;;;;;4919597;28;88050;-81
2022/03/25 10:41:36;;;;;;;30.83;19.40;;;19.90;53.10;;;;;;4913322;28;87738;-84
2022/03/25 10:44:04;;;;;;;35.58;20.77;;;19.90;53.20;;;;;;4921618;28;87926;-84
2022/03/25 10:46:32;;;;;;;27.65;18.88;;;19.90;53.00;;;;;;4922629;28;87887;-83
2022/03/25 10:48:59;;;;;;;29.23;18.37;;;19.90;53.10;;;;;;4924742;28;87784;-83
2022/03/25 10:51:25;;;;;;;31.42;19.05;;;19.90;53.20;;;;;;4916390;28;88155;-81
2022/03/25 10:53:56;;;;;;;30.05;19.67;;;19.90;53.00;;;;;;4923182;28;87834;-82
2022/03/25 10:56:22;;;;;;;24.45;18.33;;;19.90;53.00;;;;;;4923454;28;87672;-82
2022/03/25 10:58:56;;;;;;;27.08;18.38;;;19.90;52.90;;;;;;4922049;28;88388;-84
2022/03/25 11:01:23;;;;;;;30.50;18.60;;;19.90;53.00;;;;;;4922004;28;87457;-83
2022/03/25 11:03:52;;;;;;;32.53;18.52;;;19.90;53.70;;;;;;4924177;28;88092;-82
2022/03/25 11:06:19;;;;;;;26.52;18.02;;;19.90;53.80;;;;;;4904948;28;90124;-86
2022/03/25 11:08:46;;;;;;;22.98;17.80;;;19.90;54.00;;;;;;4920362;28;87824;-86
2022/03/25 11:11:14;;;;;;;30.23;18.42;;;19.90;54.10;;;;;;4924764;28;87494;-83
2022/03/25 11:13:40;;;;;;;27.73;18.58;;;20.00;54.40;;;;;;4917483;28;87959;-82
2022/03/25 11:16:08;;;;;;;26.23;17.60;;;19.90;54.30;;;;;;4920726;28;87581;-82
2022/03/25 11:18:40;;;;;;;23.15;15.63;;;20.00;54.50;;;;;;4920063;28;88595;-82
2022/03/25 11:21:09;;;;;;;27.92;17.50;;;19.90;52.80;;;;;;4927768;28;87388;-80
2022/03/25 11:23:51;;;;;;;26.80;17.23;;;19.90;53.70;;;;;;4922367;28;88745;-82
2022/03/25 11:26:21;;;;;;;30.35;16.45;;;19.90;54.30;;;;;;4915638;28;87352;-82
2022/03/25 11:28:54;;;;;;;28.45;16.08;;;19.90;54.20;;;;;;4920940;28;87076;-83
2022/03/25 11:31:20;;;;;;;18.10;13.07;;;19.90;54.10;;;;;;4918275;28;87058;-82
2022/03/25 11:34:26;;;;;;;15.40;11.93;;;19.90;54.30;;;;;;4919656;28;87899;-82
2022/03/25 11:37:28;;;;;;;15.35;11.10;;;19.90;54.90;;;;;;4842381;28;88665;-83
2022/03/25 11:40:12;;;;;;;24.58;15.00;;;19.90;53.90;;;;;;4918201;28;87115;-82
2022/03/25 11:42:46;;;;;;;18.13;11.55;;;19.90;53.60;;;;;;4916857;28;86615;-81
2022/03/25 11:45:20;;;;;;;21.70;13.75;;;20.00;53.40;;;;;;4922849;28;89544;-81
2022/03/25 11:48:04;;;;;;;25.98;15.00;;;20.00;53.20;;;;;;4919168;28;90093;-82
2022/03/25 11:50:43;;;;;;;21.60;15.18;;;19.90;52.60;;;;;;4914355;28;88393;-82
2022/03/25 11:53:11;;;;;;;18.80;13.52;;;20.00;52.60;;;;;;4920151;28;86957;-84
2022/03/25 11:56:00;;;;;;;26.52;15.20;;;20.00;53.00;;;;;;4924137;28;87676;-86
2022/03/25 11:58:32;;;;;;;27.93;15.70;;;20.00;52.50;;;;;;4920472;28;87856;-86
2022/03/25 12:01:02;;;;;;;27.58;16.10;;;20.00;52.10;;;;;;4920366;28;87593;-81
2022/03/25 12:03:49;;;;;;;18.27;12.95;;;20.00;52.20;;;;;;4921841;28;87357;-82
2022/03/25 12:06:15;;;;;;;24.02;16.80;;;19.90;51.80;;;;;;4917111;28;88075;-81
2022/03/25 12:09:01;;;;;;;24.92;16.17;;;19.90;50.90;;;;;;4922637;28;87445;-83
2022/03/25 12:11:51;;;;;;;34.90;20.48;;;19.90;51.00;;;;;;4917316;28;87504;-83
2022/03/25 12:14:32;;;;;;;24.20;17.48;;;19.90;50.40;;;;;;4921161;28;87530;-82
2022/03/25 12:17:08;;;;;;;24.20;17.02;;;20.00;52.20;;;;;;4918430;28;88864;-83
2022/03/25 12:19:43;;;;;;;23.20;17.10;;;20.00;52.70;;;;;;4920598;28;88857;-82
2022/03/25 12:22:20;;;;;;;29.15;17.80;;;20.00;52.90;;;;;;4924107;28;88017;-83
2022/03/25 12:25:10;;;;;;;33.50;18.02;;;20.00;53.20;;;;;;4920409;28;87227;-81
2022/03/25 12:27:38;;;;;;;28.48;18.58;;;20.00;53.30;;;;;;4914233;28;90345;-83
2022/03/25 12:30:04;;;;;;;33.00;17.15;;;20.00;53.70;;;;;;4917209;28;86969;-82
2022/03/25 12:32:35;;;;;;;22.90;14.75;;;20.00;54.00;;;;;;4917201;28;88012;-83
2022/03/25 12:35:06;;;;;;;33.20;17.30;;;20.00;51.60;;;;;;4911845;28;88057;-82
2022/03/25 12:37:39;;;;;;;26.05;16.92;;;20.00;53.70;;;;;;4919755;28;88286;-81
2022/03/25 12:40:13;;;;;;;29.67;16.90;;;20.00;53.80;;;;;;4921262;28;88072;-81
2022/03/25 12:42:47;;;;;;;28.45;16.55;;;20.00;53.80;;;;;;4923707;28;88773;-81
2022/03/25 12:45:12;;;;;;;27.15;16.25;;;20.00;54.00;;;;;;4925787;28;87814;-81
2022/03/25 12:47:43;;;;;;;28.45;17.77;;;20.00;54.20;;;;;;4925168;28;87786;-81
2022/03/25 12:50:15;;;;;;;24.52;15.52;;;20.00;54.40;;;;;;4924433;28;87171;-82